Time;durP1;ratioP1;P1;durP2;ratioP2;P2;SDS_P1;SDS_P2;PMS_P1;PMS_P2;Temp;Humidity;BMP_temperature;BMP_pressure;BME280_temperature;BME280_humidity;BME280_pressure;Samples;Min_cycle;Max_cycle;Signal;HPM_P1;HPM_P2
2021/09/12 00:01:39;0.00;0.00;0.62;0.00;0.00;0.62;5.53;5.00;;;24.40;45.40;;;;;;2253527;61;20456;-59
2021/09/12 00:04:24;0.00;0.00;0.62;0.00;0.00;0.62;5.37;4.87;;;24.40;45.50;;;;;;2253556;61;20399;-59
2021/09/12 00:07:09;0.00;0.00;0.62;0.00;0.00;0.62;8.70;5.30;;;24.40;45.50;;;;;;2253725;61;20372;-60
2021/09/12 00:09:54;0.00;0.00;0.62;0.00;0.00;0.62;7.23;4.70;;;24.40;45.50;;;;;;2253525;61;20406;-60
2021/09/12 00:12:38;0.00;0.00;0.62;0.00;0.00;0.62;5.90;4.80;;;24.40;45.60;;;;;;2253254;61;20680;-60
2021/09/12 00:15:23;0.00;0.00;0.62;0.00;0.00;0.62;5.20;4.63;;;24.40;45.60;;;;;;2253873;61;20362;-60
2021/09/12 00:18:08;0.00;0.00;0.62;0.00;0.00;0.62;4.90;4.50;;;24.40;45.60;;;;;;2253581;61;20411;-57
2021/09/12 00:20:54;0.00;0.00;0.62;0.00;0.00;0.62;5.97;5.47;;;24.50;45.70;;;;;;2253489;61;20379;-60
2021/09/12 00:23:38;0.00;0.00;0.62;0.00;0.00;0.62;6.40;5.50;;;24.50;45.70;;;;;;2253792;61;20367;-60
2021/09/12 00:26:23;0.00;0.00;0.62;0.00;0.00;0.62;6.07;5.53;;;24.40;45.60;;;;;;2253449;61;20355;-59
2021/09/12 00:29:08;0.00;0.00;0.62;0.00;0.00;0.62;4.97;4.47;;;24.50;45.80;;;;;;2253789;61;20411;-58
2021/09/12 00:31:52;0.00;0.00;0.62;0.00;0.00;0.62;6.13;5.50;;;24.40;45.70;;;;;;2253638;61;20388;-60
2021/09/12 00:34:37;0.00;0.00;0.62;0.00;0.00;0.62;5.13;4.73;;;24.40;45.70;;;;;;2253260;61;20375;-59
2021/09/12 00:37:23;0.00;0.00;0.62;0.00;0.00;0.62;4.77;4.30;;;24.40;45.80;;;;;;2253716;61;20390;-57
2021/09/12 00:40:09;0.00;0.00;0.62;0.00;0.00;0.62;5.57;4.63;;;24.40;45.90;;;;;;2253515;61;20371;-60
2021/09/12 00:42:54;0.00;0.00;0.62;0.00;0.00;0.62;5.57;5.07;;;24.40;45.90;;;;;;2253330;61;20480;-60
2021/09/12 00:45:38;0.00;0.00;0.62;0.00;0.00;0.62;5.37;4.87;;;24.40;45.90;;;;;;2253716;61;20772;-60
2021/09/12 00:48:24;0.00;0.00;0.62;0.00;0.00;0.62;5.33;4.87;;;24.40;45.90;;;;;;2253285;61;20747;-60
2021/09/12 00:51:08;0.00;0.00;0.62;0.00;0.00;0.62;5.40;4.10;;;24.40;46.00;;;;;;2253564;61;20379;-58
2021/09/12 00:53:56;0.00;0.00;0.62;0.00;0.00;0.62;6.30;5.37;;;24.40;46.00;;;;;;2254263;61;20352;-60
2021/09/12 00:56:42;0.00;0.00;0.62;0.00;0.00;0.62;4.67;4.23;;;24.40;46.00;;;;;;2253611;61;20380;-58
2021/09/12 00:59:27;0.00;0.00;0.62;0.00;0.00;0.62;4.93;4.43;;;24.40;46.10;;;;;;2254357;61;20359;-61
2021/09/12 01:02:12;0.00;0.00;0.62;0.00;0.00;0.62;3.83;3.53;;;24.40;46.00;;;;;;2254213;61;20388;-60
2021/09/12 01:04:56;0.00;0.00;0.62;0.00;0.00;0.62;6.63;5.00;;;24.40;46.00;;;;;;2253872;61;20411;-60
2021/09/12 01:07:41;0.00;0.00;0.62;0.00;0.00;0.62;3.90;3.60;;;24.40;46.00;;;;;;2254418;61;20579;-59
2021/09/12 01:10:27;0.00;0.00;0.62;0.00;0.00;0.62;4.13;3.73;;;24.40;46.00;;;;;;2253729;61;20766;-59
2021/09/12 01:13:12;0.00;0.00;0.62;0.00;0.00;0.62;4.60;4.20;;;24.40;46.00;;;;;;2254127;61;20584;-60
2021/09/12 01:15:56;0.00;0.00;0.62;0.00;0.00;0.62;4.90;4.10;;;24.40;46.00;;;;;;2254139;61;20769;-59
2021/09/12 01:18:41;0.00;0.00;0.62;0.00;0.00;0.62;3.87;3.57;;;24.40;46.00;;;;;;2253985;61;20348;-60
2021/09/12 01:21:26;0.00;0.00;0.62;0.00;0.00;0.62;4.60;4.10;;;24.40;46.10;;;;;;2256252;61;20471;-58
2021/09/12 01:24:13;0.00;0.00;0.62;0.00;0.00;0.62;4.33;3.93;;;24.30;46.00;;;;;;2258265;61;20437;-60
2021/09/12 01:26:58;0.00;0.00;0.62;0.00;0.00;0.62;4.10;3.80;;;24.40;46.10;;;;;;2257792;61;20363;-60
2021/09/12 01:29:43;0.00;0.00;0.62;0.00;0.00;0.62;4.37;4.00;;;24.40;46.10;;;;;;2258281;61;20632;-60
2021/09/12 01:32:28;0.00;0.00;0.62;0.00;0.00;0.62;3.60;3.30;;;24.40;46.10;;;;;;2257711;61;20402;-60
2021/09/12 01:35:13;0.00;0.00;0.62;0.00;0.00;0.62;3.90;3.60;;;24.40;46.10;;;;;;2258044;61;20367;-59
2021/09/12 01:37:57;0.00;0.00;0.62;0.00;0.00;0.62;3.33;3.03;;;24.40;46.20;;;;;;2257703;61;20726;-57
2021/09/12 01:40:43;0.00;0.00;0.62;0.00;0.00;0.62;4.10;3.70;;;24.40;46.30;;;;;;2257895;61;20605;-60
2021/09/12 01:43:27;0.00;0.00;0.62;0.00;0.00;0.62;6.40;3.70;;;24.40;46.30;;;;;;2258070;61;20363;-59
2021/09/12 01:46:12;0.00;0.00;0.62;0.00;0.00;0.62;3.87;3.57;;;24.40;46.40;;;;;;2258074;61;20462;-59
2021/09/12 01:49:00;0.00;0.00;0.62;0.00;0.00;0.62;5.93;3.60;;;24.40;46.50;;;;;;2257756;61;20362;-60
2021/09/12 01:51:45;0.00;0.00;0.62;0.00;0.00;0.62;3.83;2.93;;;24.40;46.50;;;;;;2258193;61;20414;-61
2021/09/12 01:54:29;0.00;0.00;0.62;0.00;0.00;0.62;4.17;3.40;;;24.50;46.50;;;;;;2258029;61;20379;-59
2021/09/12 01:57:15;0.00;0.00;0.62;0.00;0.00;0.62;3.30;3.00;;;24.50;46.50;;;;;;2257972;61;20387;-59
2021/09/12 01:59:59;0.00;0.00;0.62;0.00;0.00;0.62;3.40;3.10;;;24.50;47.00;;;;;;2257754;61;20367;-60
2021/09/12 02:02:44;0.00;0.00;0.62;0.00;0.00;0.62;4.97;3.63;;;24.60;46.50;;;;;;2257910;61;20443;-59
2021/09/12 02:05:28;0.00;0.00;0.62;0.00;0.00;0.62;4.43;3.60;;;24.50;46.50;;;;;;2257908;61;20719;-60
2021/09/12 02:08:13;0.00;0.00;0.62;0.00;0.00;0.62;3.60;3.30;;;24.50;46.40;;;;;;2257996;61;20358;-60
2021/09/12 02:10:58;0.00;0.00;0.62;0.00;0.00;0.62;3.47;3.13;;;24.60;46.50;;;;;;2257396;61;20402;-60
2021/09/12 02:13:44;0.00;0.00;0.62;0.00;0.00;0.62;4.17;3.60;;;24.60;46.40;;;;;;2258196;61;20366;-60
2021/09/12 02:16:28;0.00;0.00;0.62;0.00;0.00;0.62;3.50;3.20;;;24.60;46.40;;;;;;2257972;61;20387;-59
2021/09/12 02:19:13;0.00;0.00;0.62;0.00;0.00;0.62;2.47;2.27;;;24.60;46.40;;;;;;2257997;61;20406;-57
2021/09/12 02:21:57;0.00;0.00;0.62;0.00;0.00;0.62;4.57;3.00;;;24.60;46.30;;;;;;2258111;61;20387;-60
2021/09/12 02:24:42;0.00;0.00;0.62;0.00;0.00;0.62;3.23;2.93;;;24.60;46.30;;;;;;2257729;61;20674;-60
2021/09/12 02:27:26;0.00;0.00;0.62;0.00;0.00;0.62;3.30;3.00;;;24.70;46.90;;;;;;2257917;61;20367;-60
2021/09/12 02:30:13;0.00;0.00;0.62;0.00;0.00;0.62;2.80;2.60;;;24.70;46.30;;;;;;2257902;61;20366;-60
2021/09/12 02:32:58;0.00;0.00;0.62;0.00;0.00;0.62;3.57;3.20;;;24.70;46.20;;;;;;2257622;61;20731;-60
2021/09/12 02:35:43;0.00;0.00;0.62;0.00;0.00;0.62;3.50;3.20;;;24.70;46.20;;;;;;2258057;61;20754;-60
2021/09/12 02:38:27;0.00;0.00;0.62;0.00;0.00;0.62;4.17;2.97;;;24.70;46.20;;;;;;2257926;61;20355;-60
2021/09/12 02:41:12;0.00;0.00;0.62;0.00;0.00;0.62;3.60;3.30;;;24.70;46.20;;;;;;2257562;61;20382;-59
2021/09/12 02:43:56;0.00;0.00;0.62;0.00;0.00;0.62;2.80;2.50;;;24.70;46.10;;;;;;2257977;61;20387;-60
2021/09/12 02:46:42;0.00;0.00;0.62;0.00;0.00;0.62;3.17;2.87;;;24.70;46.10;;;;;;2257662;61;20422;-58
2021/09/12 02:49:27;0.00;0.00;0.62;0.00;0.00;0.62;3.30;3.00;;;24.80;46.20;;;;;;2257690;61;20413;-60
2021/09/12 02:52:11;0.00;0.00;0.62;0.00;0.00;0.62;4.33;3.03;;;24.80;46.10;;;;;;2257860;61;20586;-60
2021/09/12 02:54:56;0.00;0.00;0.62;0.00;0.00;0.62;4.03;3.40;;;24.80;46.10;;;;;;2257782;61;20355;-60
2021/09/12 02:57:41;0.00;0.00;0.62;0.00;0.00;0.62;4.10;3.10;;;24.70;46.10;;;;;;2258019;61;20414;-56
2021/09/12 03:00:25;0.00;0.00;0.62;0.00;0.00;0.62;3.30;3.00;;;24.80;46.10;;;;;;2257713;61;20351;-59
2021/09/12 03:03:11;0.00;0.00;0.62;0.00;0.00;0.62;3.20;2.90;;;24.80;46.10;;;;;;2257670;61;20570;-60
2021/09/12 03:05:56;0.00;0.00;0.62;0.00;0.00;0.62;3.03;2.70;;;24.80;46.20;;;;;;2257603;61;20390;-58
2021/09/12 03:08:42;0.00;0.00;0.62;0.00;0.00;0.62;4.37;3.97;;;24.70;46.00;;;;;;2257594;61;20359;-60
2021/09/12 03:11:27;0.00;0.00;0.62;0.00;0.00;0.62;3.93;3.63;;;24.70;46.00;;;;;;2257575;61;20417;-60
2021/09/12 03:14:11;0.00;0.00;0.62;0.00;0.00;0.62;3.87;3.47;;;24.80;46.00;;;;;;2257847;61;20367;-60
2021/09/12 03:16:57;0.00;0.00;0.62;0.00;0.00;0.62;4.17;3.77;;;24.70;46.00;;;;;;2257667;61;20422;-59
2021/09/12 03:19:42;0.00;0.00;0.62;0.00;0.00;0.62;6.50;4.30;;;24.70;46.10;;;;;;2257694;61;20359;-59
2021/09/12 03:22:27;0.00;0.00;0.62;0.00;0.00;0.62;5.27;4.47;;;24.70;46.20;;;;;;2257792;61;20386;-60
2021/09/12 03:25:11;0.00;0.00;0.62;0.00;0.00;0.62;5.03;3.93;;;24.60;46.10;;;;;;2257394;61;20644;-59
2021/09/12 03:27:56;0.00;0.00;0.62;0.00;0.00;0.62;5.10;4.60;;;24.60;46.10;;;;;;2257979;61;20706;-60
2021/09/12 03:30:41;0.00;0.00;0.62;0.00;0.00;0.62;6.20;4.33;;;24.60;46.20;;;;;;2257497;61;20405;-58
2021/09/12 03:33:26;0.00;0.00;0.62;0.00;0.00;0.62;5.03;4.47;;;24.60;46.20;;;;;;2257595;61;20508;-60
2021/09/12 03:36:12;0.00;0.00;0.62;0.00;0.00;0.62;6.47;5.23;;;24.60;46.30;;;;;;2258084;61;20538;-60
2021/09/12 03:38:56;0.00;0.00;0.62;0.00;0.00;0.62;7.93;5.37;;;24.60;46.30;;;;;;2257667;61;20422;-60
2021/09/12 03:41:41;0.00;0.00;0.62;0.00;0.00;0.62;5.50;5.00;;;24.60;46.40;;;;;;2257639;61;20402;-60
2021/09/12 03:44:26;0.00;0.00;0.62;0.00;0.00;0.62;6.33;5.73;;;24.60;46.40;;;;;;2257658;61;20734;-59
2021/09/12 03:47:11;0.00;0.00;0.62;0.00;0.00;0.62;6.17;5.57;;;24.60;46.40;;;;;;2257338;61;20355;-60
2021/09/12 03:49:56;0.00;0.00;0.62;0.00;0.00;0.62;6.83;5.33;;;24.50;46.40;;;;;;2257780;61;20714;-57
2021/09/12 03:52:42;0.00;0.00;0.62;0.00;0.00;0.62;5.57;5.07;;;24.50;46.40;;;;;;2257864;61;20751;-59
2021/09/12 03:55:27;0.00;0.00;0.62;0.00;0.00;0.62;7.47;6.77;;;24.50;46.40;;;;;;2257740;61;20518;-58
2021/09/12 03:58:11;0.00;0.00;0.62;0.00;0.00;0.62;7.23;6.53;;;24.50;46.50;;;;;;2257835;61;20510;-60
2021/09/12 04:00:56;0.00;0.00;0.62;0.00;0.00;0.62;9.00;7.83;;;24.50;47.20;;;;;;2257322;61;20615;-59
2021/09/12 04:03:40;0.00;0.00;0.62;0.00;0.00;0.62;12.50;7.90;;;24.50;46.50;;;;;;2257593;61;20572;-58
2021/09/12 04:06:25;0.00;0.00;0.62;0.00;0.00;0.62;8.03;7.20;;;24.50;46.60;;;;;;2257698;61;20443;-60
2021/09/12 04:09:11;0.00;0.00;0.62;0.00;0.00;0.62;9.87;8.97;;;24.50;46.70;;;;;;2257514;61;20362;-61
2021/09/12 04:11:55;0.00;0.00;0.62;0.00;0.00;0.62;10.30;8.83;;;24.50;46.70;;;;;;2257775;61;20473;-58
2021/09/12 04:14:40;0.00;0.00;0.62;0.00;0.00;0.62;11.13;10.07;;;24.50;46.80;;;;;;2257706;61;20715;-57
2021/09/12 04:17:24;0.00;0.00;0.62;0.00;0.00;0.62;10.30;9.30;;;24.50;46.80;;;;;;2257286;61;20386;-60
2021/09/12 04:20:11;0.00;0.00;0.62;0.00;0.00;0.62;11.73;10.53;;;24.40;46.80;;;;;;2257384;61;20363;-60
2021/09/12 04:22:56;0.00;0.00;0.62;0.00;0.00;0.62;10.30;9.33;;;24.40;46.80;;;;;;2257385;61;20374;-60
2021/09/12 04:25:42;0.00;0.00;0.62;0.00;0.00;0.62;10.13;9.07;;;24.40;46.90;;;;;;2257588;61;20582;-58
2021/09/12 04:28:26;0.00;0.00;0.62;0.00;0.00;0.62;10.00;9.00;;;24.40;46.90;;;;;;2258287;61;20354;-60
2021/09/12 04:31:11;0.00;0.00;0.62;0.00;0.00;0.62;11.77;10.60;;;24.30;46.90;;;;;;2258033;61;20445;-57
2021/09/12 04:33:56;0.00;0.00;0.62;0.00;0.00;0.62;11.73;10.60;;;24.30;46.90;;;;;;2258486;61;20626;-60
2021/09/12 04:36:40;0.00;0.00;0.62;0.00;0.00;0.62;11.63;10.43;;;24.30;47.00;;;;;;2258185;61;20758;-59
2021/09/12 04:39:25;0.00;0.00;0.62;0.00;0.00;0.62;11.77;10.67;;;24.30;47.10;;;;;;2258070;61;20366;-58
2021/09/12 04:42:11;0.00;0.00;0.62;0.00;0.00;0.62;12.93;11.70;;;24.30;47.20;;;;;;2258541;61;20441;-60
2021/09/12 04:44:55;0.00;0.00;0.62;0.00;0.00;0.62;12.13;10.93;;;24.30;47.30;;;;;;2257940;61;20589;-60
2021/09/12 04:47:40;0.00;0.00;0.62;0.00;0.00;0.62;11.17;10.03;;;24.20;47.20;;;;;;2258250;61;20359;-58
2021/09/12 04:50:24;0.00;0.00;0.62;0.00;0.00;0.62;11.90;10.73;;;24.20;47.30;;;;;;2257724;61;20629;-58
2021/09/12 04:53:09;0.00;0.00;0.62;0.00;0.00;0.62;12.30;9.93;;;24.20;47.30;;;;;;2258127;61;20410;-57
2021/09/12 04:55:53;0.00;0.00;0.62;0.00;0.00;0.62;12.47;11.13;;;24.20;47.40;;;;;;2258293;61;20799;-60
2021/09/12 04:58:39;0.00;0.00;0.62;0.00;0.00;0.62;11.93;10.73;;;24.20;47.50;;;;;;2258262;61;20354;-60
2021/09/12 05:01:24;0.00;0.00;0.62;0.00;0.00;0.62;13.10;10.93;;;24.20;47.60;;;;;;2257957;61;20386;-59
2021/09/12 05:04:08;0.00;0.00;0.62;0.00;0.00;0.62;12.37;11.13;;;24.20;47.60;;;;;;2258375;61;20462;-60
2021/09/12 05:06:53;0.00;0.00;0.62;0.00;0.00;0.62;12.80;11.60;;;24.20;47.60;;;;;;2258129;61;20362;-61
2021/09/12 05:09:38;0.00;0.00;0.62;0.00;0.00;0.62;13.23;11.83;;;24.20;47.70;;;;;;2258078;61;20399;-60
2021/09/12 05:12:22;0.00;0.00;0.62;0.00;0.00;0.62;12.17;10.97;;;24.20;47.70;;;;;;2258267;61;20429;-59
2021/09/12 05:15:09;0.00;0.00;0.62;0.00;0.00;0.62;11.90;10.77;;;24.20;47.70;;;;;;2258093;61;20350;-58
2021/09/12 05:17:54;0.00;0.00;0.62;0.00;0.00;0.62;12.90;11.60;;;24.20;47.80;;;;;;2258335;61;20386;-60
2021/09/12 05:20:39;0.00;0.00;0.62;0.00;0.00;0.62;12.10;11.00;;;24.20;47.80;;;;;;2258238;61;20698;-59
2021/09/12 05:23:24;0.00;0.00;0.62;0.00;0.00;0.62;12.80;11.50;;;24.20;47.80;;;;;;2257847;61;20402;-59
2021/09/12 05:26:08;0.00;0.00;0.62;0.00;0.00;0.62;11.80;10.57;;;24.20;47.80;;;;;;2258353;61;20633;-60
2021/09/12 05:28:53;0.00;0.00;0.62;0.00;0.00;0.62;12.77;11.57;;;24.20;47.80;;;;;;2258206;61;20582;-60
2021/09/12 05:31:39;0.00;0.00;0.62;0.00;0.00;0.62;13.60;11.67;;;24.20;47.80;;;;;;2258035;61;20487;-59
2021/09/12 05:34:24;0.00;0.00;0.62;0.00;0.00;0.62;12.93;11.63;;;24.20;47.90;;;;;;2258368;61;20367;-60
2021/09/12 05:37:08;0.00;0.00;0.62;0.00;0.00;0.62;13.70;10.47;;;24.20;47.80;;;;;;2257893;61;20425;-60
2021/09/12 05:39:53;0.00;0.00;0.62;0.00;0.00;0.62;12.57;11.40;;;24.20;47.90;;;;;;2257997;61;20370;-59
2021/09/12 05:42:38;0.00;0.00;0.62;0.00;0.00;0.62;12.30;11.10;;;24.20;47.90;;;;;;2257699;61;20433;-60
2021/09/12 05:45:22;0.00;0.00;0.62;0.00;0.00;0.62;10.90;9.40;;;24.20;48.00;;;;;;2257852;61;20929;-60
2021/09/12 05:48:08;0.00;0.00;0.62;0.00;0.00;0.62;13.10;11.80;;;24.20;48.00;;;;;;2258271;61;20367;-59
2021/09/12 05:50:53;0.00;0.00;0.62;0.00;0.00;0.62;13.70;12.27;;;24.20;48.00;;;;;;2257936;61;20712;-60
2021/09/12 05:53:37;0.00;0.00;0.62;0.00;0.00;0.62;12.23;10.83;;;24.20;48.00;;;;;;2257693;61;20394;-60
2021/09/12 05:56:22;0.00;0.00;0.62;0.00;0.00;0.62;12.90;11.60;;;24.20;48.00;;;;;;2258168;61;20367;-60
2021/09/12 05:59:06;0.00;0.00;0.62;0.00;0.00;0.62;13.33;11.67;;;24.20;48.10;;;;;;2257413;61;20362;-61
2021/09/12 06:01:51;0.00;0.00;0.62;0.00;0.00;0.62;12.63;11.37;;;24.20;48.00;;;;;;2257962;61;20754;-60
2021/09/12 06:04:37;0.00;0.00;0.62;0.00;0.00;0.62;13.90;10.77;;;24.20;48.00;;;;;;2258058;61;20436;-60
2021/09/12 06:07:22;0.00;0.00;0.62;0.00;0.00;0.62;13.90;12.53;;;24.20;48.10;;;;;;2257922;61;20367;-60
2021/09/12 06:10:07;0.00;0.00;0.62;0.00;0.00;0.62;13.77;12.00;;;24.20;48.20;;;;;;2257982;61;20351;-60
2021/09/12 06:12:52;0.00;0.00;0.62;0.00;0.00;0.62;14.17;12.67;;;24.20;48.20;;;;;;2258023;61;20390;-60
2021/09/12 06:15:37;0.00;0.00;0.62;0.00;0.00;0.62;13.50;11.40;;;24.20;48.20;;;;;;2257756;61;20418;-58
2021/09/12 06:18:21;0.00;0.00;0.62;0.00;0.00;0.62;12.70;10.57;;;24.20;48.40;;;;;;2258146;61;20463;-58
2021/09/12 06:21:07;0.00;0.00;0.62;0.00;0.00;0.62;11.73;10.53;;;24.20;48.40;;;;;;2257632;61;20421;-59
2021/09/12 06:23:52;0.00;0.00;0.62;0.00;0.00;0.62;11.00;9.90;;;24.10;48.20;;;;;;2257913;61;20366;-61
2021/09/12 06:26:36;0.00;0.00;0.62;0.00;0.00;0.62;13.97;11.20;;;24.20;48.40;;;;;;2258021;61;20378;-60
2021/09/12 06:29:21;0.00;0.00;0.62;0.00;0.00;0.62;16.00;11.07;;;24.20;48.40;;;;;;2257757;61;20362;-60
2021/09/12 06:32:06;0.00;0.00;0.62;0.00;0.00;0.62;16.40;12.50;;;24.20;48.40;;;;;;2257804;61;20387;-59
2021/09/12 06:34:51;0.00;0.00;0.62;0.00;0.00;0.62;12.47;11.17;;;24.20;48.50;;;;;;2258067;61;20355;-60
2021/09/12 06:37:37;0.00;0.00;0.62;0.00;0.00;0.62;11.40;10.20;;;24.20;48.50;;;;;;2257501;61;20502;-60
2021/09/12 06:40:23;0.00;0.00;0.62;0.00;0.00;0.62;13.90;12.17;;;24.20;48.50;;;;;;2258057;61;20438;-60
2021/09/12 06:43:08;0.00;0.00;0.62;0.00;0.00;0.62;14.60;11.83;;;24.20;48.50;;;;;;2257771;61;20395;-58
2021/09/12 06:45:53;0.00;0.00;0.62;0.00;0.00;0.62;14.00;12.60;;;24.20;48.60;;;;;;2257813;61;20359;-60
2021/09/12 06:48:37;0.00;0.00;0.62;0.00;0.00;0.62;14.10;12.20;;;24.20;48.60;;;;;;2258006;61;20399;-58
2021/09/12 06:51:22;0.00;0.00;0.62;0.00;0.00;0.62;20.93;15.40;;;24.20;48.70;;;;;;2257128;61;20422;-59
2021/09/12 06:54:08;0.00;0.00;0.62;0.00;0.00;0.62;16.30;14.67;;;24.20;48.70;;;;;;2257907;61;20359;-60
2021/09/12 06:56:52;0.00;0.00;0.62;0.00;0.00;0.62;15.90;14.20;;;24.20;48.70;;;;;;2257817;61;20518;-59
2021/09/12 06:59:37;0.00;0.00;0.62;0.00;0.00;0.62;16.97;14.00;;;24.20;48.70;;;;;;2257395;61;20347;-61
2021/09/12 07:02:22;0.00;0.00;0.62;0.00;0.00;0.62;15.37;12.50;;;24.20;48.70;;;;;;2258018;61;20442;-61
2021/09/12 07:05:09;0.00;0.00;0.62;0.00;0.00;0.62;16.93;15.20;;;24.20;48.70;;;;;;2257845;61;20410;-60
2021/09/12 07:07:53;0.00;0.00;0.62;0.00;0.00;0.62;16.30;14.60;;;24.20;48.70;;;;;;2257786;61;20645;-60
2021/09/12 07:10:40;0.00;0.00;0.62;0.00;0.00;0.62;15.90;13.60;;;24.20;48.70;;;;;;2257751;61;20363;-60
2021/09/12 07:13:24;0.00;0.00;0.62;0.00;0.00;0.62;16.20;14.37;;;24.20;48.80;;;;;;2257666;61;20363;-60
2021/09/12 07:16:10;0.00;0.00;0.62;0.00;0.00;0.62;17.80;15.50;;;24.20;48.70;;;;;;2257781;61;20751;-60
2021/09/12 07:18:54;0.00;0.00;0.62;0.00;0.00;0.62;14.77;13.33;;;24.20;48.90;;;;;;2257755;61;20363;-59
2021/09/12 07:21:38;0.00;0.00;0.62;0.00;0.00;0.62;16.70;15.00;;;24.20;48.90;;;;;;2257439;61;20665;-63
2021/09/12 07:24:23;0.00;0.00;0.62;0.00;0.00;0.62;17.10;15.40;;;24.20;49.10;;;;;;2257922;61;20422;-58
2021/09/12 07:27:09;0.00;0.00;0.62;0.00;0.00;0.62;16.00;14.23;;;24.20;49.10;;;;;;2257773;61;20644;-57
2021/09/12 07:29:53;0.00;0.00;0.62;0.00;0.00;0.62;18.27;14.53;;;24.20;49.20;;;;;;2257345;61;20739;-58
2021/09/12 07:32:38;0.00;0.00;0.62;0.00;0.00;0.62;14.87;13.33;;;24.20;49.20;;;;;;2257797;61;20579;-61
2021/09/12 07:35:23;0.00;0.00;0.62;0.00;0.00;0.62;18.53;14.90;;;24.20;49.20;;;;;;2257422;61;20581;-61
2021/09/12 07:38:07;0.00;0.00;0.62;0.00;0.00;0.62;16.60;14.13;;;24.20;49.40;;;;;;2253034;61;20428;-61
2021/09/12 07:40:52;0.00;0.00;0.62;0.00;0.00;0.62;18.60;13.17;;;24.20;49.40;;;;;;2256999;61;20386;-61
2021/09/12 07:43:39;0.00;0.00;0.62;0.00;0.00;0.62;15.23;12.40;;;24.20;49.50;;;;;;2257527;61;20601;-61
2021/09/12 07:46:24;0.00;0.00;0.62;0.00;0.00;0.62;14.70;12.23;;;24.20;49.40;;;;;;2257952;61;20586;-62
2021/09/12 07:49:08;0.00;0.00;0.62;0.00;0.00;0.62;11.37;10.10;;;24.20;49.30;;;;;;2257700;61;20359;-62
2021/09/12 07:51:53;0.00;0.00;0.62;0.00;0.00;0.62;10.37;9.30;;;24.20;49.30;;;;;;2257137;61;20535;-61
2021/09/12 07:54:38;0.00;0.00;0.62;0.00;0.00;0.62;10.10;9.10;;;24.30;49.30;;;;;;2257947;61;20719;-61
2021/09/12 07:57:22;0.00;0.00;0.62;0.00;0.00;0.62;10.10;9.10;;;24.30;49.90;;;;;;2257261;61;20817;-61
2021/09/12 08:00:10;0.00;0.00;0.62;0.00;0.00;0.62;10.20;9.27;;;24.40;49.20;;;;;;2257373;61;20377;-60
2021/09/12 08:02:58;0.00;0.00;0.62;0.00;0.00;0.62;9.97;8.97;;;24.40;49.10;;;;;;2257171;61;20405;-60
2021/09/12 08:05:42;0.00;0.00;0.62;0.00;0.00;0.62;11.27;10.00;;;24.50;49.00;;;;;;2257842;61;20367;-61
2021/09/12 08:08:27;0.00;0.00;0.62;0.00;0.00;0.62;13.13;10.47;;;24.50;49.00;;;;;;2258278;61;20719;-61
2021/09/12 08:11:11;0.00;0.00;0.62;0.00;0.00;0.62;12.37;11.10;;;24.60;49.10;;;;;;2257708;61;20425;-61
2021/09/12 08:13:56;0.00;0.00;0.62;0.00;0.00;0.62;11.30;10.30;;;24.60;48.80;;;;;;2256408;61;20355;-60
2021/09/12 08:16:42;0.00;0.00;0.62;0.00;0.00;0.62;9.40;8.30;;;24.60;48.60;;;;;;2258348;61;20414;-59
2021/09/12 08:19:26;0.00;0.00;0.62;0.00;0.00;0.62;9.00;8.07;;;24.60;48.60;;;;;;2257464;61;20366;-60
2021/09/12 08:25:21;0.00;0.00;0.62;0.00;0.00;0.62;10.40;9.40;;;24.70;48.50;;;;;;2386451;56;20743;-61
2021/09/12 08:28:06;0.00;0.00;0.62;0.00;0.00;0.62;11.60;9.83;;;24.70;48.30;;;;;;2252455;61;20414;-60
2021/09/12 08:30:50;0.00;0.00;0.62;0.00;0.00;0.62;9.37;8.47;;;24.70;48.20;;;;;;2254514;61;20360;-60
2021/09/12 08:33:36;0.00;0.00;0.62;0.00;0.00;0.62;9.13;8.23;;;24.70;48.20;;;;;;2253239;61;20722;-60
2021/09/12 08:36:21;0.00;0.00;0.62;0.00;0.00;0.62;8.20;7.40;;;24.70;48.20;;;;;;2254388;61;20443;-59
2021/09/12 08:39:06;0.00;0.00;0.62;0.00;0.00;0.62;8.17;7.37;;;24.80;48.80;;;;;;2254419;61;20587;-60
2021/09/12 08:41:50;0.00;0.00;0.62;0.00;0.00;0.62;10.67;8.67;;;24.80;48.10;;;;;;2253544;61;20407;-60
2021/09/12 08:44:36;0.00;0.00;0.62;0.00;0.00;0.62;10.40;8.67;;;24.80;48.00;;;;;;2253925;61;20407;-60
2021/09/12 08:47:21;0.00;0.00;0.62;0.00;0.00;0.62;8.90;7.60;;;24.90;47.90;;;;;;2254174;61;20403;-58
2021/09/12 08:50:10;0.00;0.00;0.62;0.00;0.00;0.62;9.53;8.63;;;24.90;47.80;;;;;;2250927;61;20727;-60
2021/09/12 08:52:54;0.00;0.00;0.62;0.00;0.00;0.62;8.97;7.93;;;24.90;47.70;;;;;;2254417;61;20483;-60
2021/09/12 08:55:38;0.00;0.00;0.62;0.00;0.00;0.62;7.80;7.10;;;24.90;47.60;;;;;;2253272;61;20411;-60
2021/09/12 08:58:24;0.00;0.00;0.62;0.00;0.00;0.62;7.90;7.30;;;24.90;47.60;;;;;;2254203;61;20391;-59
2021/09/12 09:01:08;0.00;0.00;0.62;0.00;0.00;0.62;9.60;8.70;;;24.90;47.60;;;;;;2254385;61;20379;-60
2021/09/12 09:04:00;0.00;0.00;0.62;0.00;0.00;0.62;7.33;6.63;;;25.00;47.60;;;;;;2253329;61;20367;-59
2021/09/12 09:06:46;0.00;0.00;0.62;0.00;0.00;0.62;9.10;7.30;;;25.00;47.50;;;;;;2254418;61;20360;-59
2021/09/12 09:09:46;0.00;0.00;0.62;0.00;0.00;0.62;7.83;6.33;;;25.00;47.40;;;;;;2253974;61;20371;-60
2021/09/12 09:12:33;0.00;0.00;0.62;0.00;0.00;0.62;6.73;6.13;;;25.00;47.40;;;;;;2253177;61;20420;-59
2021/09/12 09:15:22;0.00;0.00;0.62;0.00;0.00;0.62;7.30;6.50;;;25.00;47.40;;;;;;2253775;61;20384;-60
2021/09/12 09:18:07;0.00;0.00;0.62;0.00;0.00;0.62;6.27;5.10;;;25.00;47.40;;;;;;2253429;61;20384;-58
2021/09/12 09:20:51;0.00;0.00;0.62;0.00;0.00;0.62;6.60;5.67;;;25.10;47.50;;;;;;2254291;61;20360;-61
2021/09/12 09:23:42;0.00;0.00;0.62;0.00;0.00;0.62;8.40;6.57;;;25.10;47.50;;;;;;2253950;61;20576;-57
2021/09/12 09:26:27;0.00;0.00;0.62;0.00;0.00;0.62;6.73;6.13;;;25.10;47.40;;;;;;2250451;61;20399;-57
2021/09/12 09:29:12;0.00;0.00;0.62;0.00;0.00;0.62;13.07;6.63;;;25.10;47.30;;;;;;2253998;61;20616;-59
2021/09/12 09:32:02;0.00;0.00;0.62;0.00;0.00;0.62;10.83;6.90;;;25.10;47.20;;;;;;2254102;61;20364;-59
2021/09/12 09:34:47;0.00;0.00;0.62;0.00;0.00;0.62;7.13;6.40;;;25.20;47.00;;;;;;2253740;61;20402;-56
2021/09/12 09:37:31;0.00;0.00;0.62;0.00;0.00;0.62;10.43;7.67;;;25.20;46.90;;;;;;2253759;61;20766;-61
2021/09/12 09:40:18;0.00;0.00;0.62;0.00;0.00;0.62;8.50;7.60;;;25.20;46.70;;;;;;2253539;61;20375;-60
2021/09/12 09:43:15;0.00;0.00;0.62;0.00;0.00;0.62;6.80;6.10;;;25.20;46.50;;;;;;2254081;61;20592;-59
2021/09/12 09:46:00;0.00;0.00;0.62;0.00;0.00;0.62;7.20;6.50;;;25.20;46.50;;;;;;2253860;61;20383;-59
2021/09/12 09:48:44;0.00;0.00;0.62;0.00;0.00;0.62;7.03;6.33;;;25.20;46.50;;;;;;2253615;61;20372;-57
2021/09/12 09:51:29;0.00;0.00;0.62;0.00;0.00;0.62;8.47;6.47;;;25.20;46.50;;;;;;2253703;61;20383;-58
2021/09/12 09:54:15;0.00;0.00;0.62;0.00;0.00;0.62;8.33;7.43;;;25.20;46.40;;;;;;2253694;61;20363;-57
2021/09/12 09:57:01;0.00;0.00;0.62;0.00;0.00;0.62;8.13;7.17;;;25.20;46.10;;;;;;2253812;61;20383;-60
2021/09/12 09:59:47;0.00;0.00;0.62;0.00;0.00;0.62;10.90;7.20;;;25.20;46.00;;;;;;2253731;61;20368;-60
2021/09/12 10:02:33;0.00;0.00;0.62;0.00;0.00;0.62;8.07;7.37;;;25.20;45.90;;;;;;2253213;61;20396;-60
2021/09/12 10:05:20;0.00;0.00;0.62;0.00;0.00;0.62;8.40;7.20;;;25.20;45.80;;;;;;2254116;61;20383;-58
2021/09/12 10:08:07;0.00;0.00;0.62;0.00;0.00;0.62;8.47;7.30;;;25.20;45.80;;;;;;2253751;61;20387;-60
2021/09/12 10:10:52;0.00;0.00;0.62;0.00;0.00;0.62;8.00;6.83;;;25.20;45.80;;;;;;2253411;61;20391;-59
2021/09/12 10:13:39;0.00;0.00;0.62;0.00;0.00;0.62;7.50;6.70;;;25.10;45.70;;;;;;2253361;61;20399;-60
2021/09/12 10:16:26;0.00;0.00;0.62;0.00;0.00;0.62;7.50;6.77;;;25.10;45.80;;;;;;2253520;61;20384;-60
2021/09/12 10:19:10;0.00;0.00;0.62;0.00;0.00;0.62;6.70;5.23;;;25.10;45.80;;;;;;2253053;61;20389;-57
2021/09/12 10:21:58;0.00;0.00;0.62;0.00;0.00;0.62;10.47;6.83;;;25.10;45.80;;;;;;2253468;61;20367;-59
2021/09/12 10:25:09;0.00;0.00;0.62;0.00;0.00;0.62;8.37;5.60;;;25.10;45.70;;;;;;2252284;61;20484;-60
2021/09/12 10:28:03;0.00;0.00;0.62;0.00;0.00;0.62;6.67;5.97;;;25.10;45.60;;;;;;2253674;61;20765;-59
2021/09/12 10:30:49;0.00;0.00;0.62;0.00;0.00;0.62;9.40;6.37;;;25.10;45.50;;;;;;2253711;61;20624;-60
2021/09/12 10:33:33;0.00;0.00;0.62;0.00;0.00;0.62;7.00;6.30;;;25.10;45.20;;;;;;2252858;61;20363;-59
2021/09/12 10:36:22;0.00;0.00;0.62;0.00;0.00;0.62;8.03;5.90;;;25.20;45.00;;;;;;2253229;61;20375;-59
2021/09/12 10:39:31;0.00;0.00;0.62;0.00;0.00;0.62;10.47;5.60;;;25.20;44.80;;;;;;2253498;61;20453;-59
2021/09/12 10:42:21;0.00;0.00;0.62;0.00;0.00;0.62;6.70;5.10;;;25.20;45.40;;;;;;2253936;61;20607;-57
2021/09/12 10:45:25;0.00;0.00;0.62;0.00;0.00;0.62;7.43;5.67;;;25.20;44.60;;;;;;2253552;61;20456;-60
2021/09/12 10:48:21;0.00;0.00;0.62;0.00;0.00;0.62;7.20;5.37;;;25.20;44.70;;;;;;2253426;61;20364;-57
2021/09/12 10:51:07;0.00;0.00;0.62;0.00;0.00;0.62;7.30;5.17;;;25.40;44.90;;;;;;2253272;61;20368;-60
2021/09/12 10:54:02;0.00;0.00;0.62;0.00;0.00;0.62;8.60;5.63;;;25.40;44.60;;;;;;2253325;61;20414;-60